sensor_id;sensor_type;location;lat;lon;timestamp;P1;durP1;ratioP1;P2;durP2;ratioP2
13552;SDS011;6847;48.830;9.116;2023-07-13T00:00:02;0.10;;;0.10;;
13552;SDS011;6847;48.830;9.116;2023-07-13T00:02:33;0.10;;;0.10;;
13552;SDS011;6847;48.830;9.116;2023-07-13T00:05:05;0.10;;;0.10;;
13552;SDS011;6847;48.830;9.116;2023-07-13T00:07:32;0.10;;;0.10;;
13552;SDS011;6847;48.830;9.116;2023-07-13T00:09:59;0.10;;;0.10;;
13552;SDS011;6847;48.830;9.116;2023-07-13T00:12:27;0.10;;;0.10;;
13552;SDS011;6847;48.830;9.116;2023-07-13T00:14:55;0.10;;;0.10;;
13552;SDS011;6847;48.830;9.116;2023-07-13T00:17:22;0.10;;;0.10;;
13552;SDS011;6847;48.830;9.116;2023-07-13T00:19:50;0.10;;;0.10;;
13552;SDS011;6847;48.830;9.116;2023-07-13T00:22:32;0.10;;;0.10;;
13552;SDS011;6847;48.830;9.116;2023-07-13T00:24:59;0.20;;;0.20;;
13552;SDS011;6847;48.830;9.116;2023-07-13T00:27:26;0.10;;;0.10;;
13552;SDS011;6847;48.830;9.116;2023-07-13T00:29:55;0.10;;;0.10;;
13552;SDS011;6847;48.830;9.116;2023-07-13T00:32:22;0.10;;;0.10;;
13552;SDS011;6847;48.830;9.116;2023-07-13T00:34:50;0.10;;;0.10;;
13552;SDS011;6847;48.830;9.116;2023-07-13T00:37:17;0.05;;;0.05;;
13552;SDS011;6847;48.830;9.116;2023-07-13T00:39:46;0.15;;;0.15;;
13552;SDS011;6847;48.830;9.116;2023-07-13T00:42:16;0.10;;;0.10;;
13552;SDS011;6847;48.830;9.116;2023-07-13T00:47:29;0.10;;;0.10;;
13552;SDS011;6847;48.830;9.116;2023-07-13T00:49:56;0.00;;;0.00;;
13552;SDS011;6847;48.830;9.116;2023-07-13T00:52:23;0.10;;;0.10;;
13552;SDS011;6847;48.830;9.116;2023-07-13T00:54:55;0.10;;;0.10;;
13552;SDS011;6847;48.830;9.116;2023-07-13T00:57:23;0.10;;;0.10;;
13552;SDS011;6847;48.830;9.116;2023-07-13T00:59:52;0.10;;;0.10;;
13552;SDS011;6847;48.830;9.116;2023-07-13T01:02:21;0.10;;;0.10;;
13552;SDS011;6847;48.830;9.116;2023-07-13T01:04:49;0.10;;;0.10;;
13552;SDS011;6847;48.830;9.116;2023-07-13T01:07:19;0.10;;;0.10;;
13552;SDS011;6847;48.830;9.116;2023-07-13T01:09:49;0.10;;;0.10;;
13552;SDS011;6847;48.830;9.116;2023-07-13T01:12:18;0.10;;;0.10;;
13552;SDS011;6847;48.830;9.116;2023-07-13T01:14:56;0.08;;;0.08;;
13552;SDS011;6847;48.830;9.116;2023-07-13T01:17:23;0.10;;;0.10;;
13552;SDS011;6847;48.830;9.116;2023-07-13T01:19:53;0.10;;;0.10;;
13552;SDS011;6847;48.830;9.116;2023-07-13T01:22:26;0.10;;;0.10;;
13552;SDS011;6847;48.830;9.116;2023-07-13T01:24:55;0.10;;;0.10;;
13552;SDS011;6847;48.830;9.116;2023-07-13T01:27:25;0.10;;;0.10;;
13552;SDS011;6847;48.830;9.116;2023-07-13T01:29:53;0.10;;;0.10;;
13552;SDS011;6847;48.830;9.116;2023-07-13T01:32:29;0.10;;;0.10;;
13552;SDS011;6847;48.830;9.116;2023-07-13T01:34:59;0.10;;;0.10;;
13552;SDS011;6847;48.830;9.116;2023-07-13T01:37:30;0.10;;;0.10;;
13552;SDS011;6847;48.830;9.116;2023-07-13T01:40:00;0.10;;;0.10;;
13552;SDS011;6847;48.830;9.116;2023-07-13T01:42:27;0.10;;;0.10;;
13552;SDS011;6847;48.830;9.116;2023-07-13T01:44:55;0.10;;;0.10;;
13552;SDS011;6847;48.830;9.116;2023-07-13T01:47:22;0.10;;;0.10;;
13552;SDS011;6847;48.830;9.116;2023-07-13T01:49:53;0.10;;;0.10;;
13552;SDS011;6847;48.830;9.116;2023-07-13T01:52:26;0.10;;;0.10;;
13552;SDS011;6847;48.830;9.116;2023-07-13T01:54:54;0.10;;;0.10;;
13552;SDS011;6847;48.830;9.116;2023-07-13T01:59:55;0.13;;;0.13;;
13552;SDS011;6847;48.830;9.116;2023-07-13T02:02:22;0.10;;;0.10;;
13552;SDS011;6847;48.830;9.116;2023-07-13T02:04:50;0.10;;;0.10;;
13552;SDS011;6847;48.830;9.116;2023-07-13T02:07:16;0.10;;;0.10;;
13552;SDS011;6847;48.830;9.116;2023-07-13T02:09:53;0.20;;;0.20;;
13552;SDS011;6847;48.830;9.116;2023-07-13T02:12:21;0.10;;;0.10;;
13552;SDS011;6847;48.830;9.116;2023-07-13T02:14:47;0.10;;;0.10;;
13552;SDS011;6847;48.830;9.116;2023-07-13T02:17:14;0.10;;;0.10;;
13552;SDS011;6847;48.830;9.116;2023-07-13T02:19:42;0.10;;;0.10;;
13552;SDS011;6847;48.830;9.116;2023-07-13T02:22:09;0.10;;;0.10;;
13552;SDS011;6847;48.830;9.116;2023-07-13T02:24:35;0.10;;;0.10;;
13552;SDS011;6847;48.830;9.116;2023-07-13T02:27:05;0.10;;;0.10;;
13552;SDS011;6847;48.830;9.116;2023-07-13T02:29:32;0.10;;;0.10;;
13552;SDS011;6847;48.830;9.116;2023-07-13T02:31:58;0.10;;;0.10;;
13552;SDS011;6847;48.830;9.116;2023-07-13T02:34:26;0.10;;;0.10;;
13552;SDS011;6847;48.830;9.116;2023-07-13T02:36:52;0.10;;;0.10;;
13552;SDS011;6847;48.830;9.116;2023-07-13T02:39:19;0.10;;;0.10;;
13552;SDS011;6847;48.830;9.116;2023-07-13T02:41:45;0.10;;;0.10;;
13552;SDS011;6847;48.830;9.116;2023-07-13T02:44:13;0.10;;;0.10;;
13552;SDS011;6847;48.830;9.116;2023-07-13T02:46:42;0.10;;;0.10;;
13552;SDS011;6847;48.830;9.116;2023-07-13T02:49:08;0.10;;;0.10;;
13552;SDS011;6847;48.830;9.116;2023-07-13T02:51:35;0.03;;;0.03;;
13552;SDS011;6847;48.830;9.116;2023-07-13T02:54:02;0.10;;;0.10;;
13552;SDS011;6847;48.830;9.116;2023-07-13T02:56:33;0.10;;;0.10;;
13552;SDS011;6847;48.830;9.116;2023-07-13T02:59:00;0.13;;;0.13;;
13552;SDS011;6847;48.830;9.116;2023-07-13T03:01:30;0.10;;;0.10;;
13552;SDS011;6847;48.830;9.116;2023-07-13T03:03:59;0.10;;;0.10;;
13552;SDS011;6847;48.830;9.116;2023-07-13T03:06:30;0.10;;;0.10;;
13552;SDS011;6847;48.830;9.116;2023-07-13T03:08:56;0.10;;;0.10;;
13552;SDS011;6847;48.830;9.116;2023-07-13T03:11:23;0.10;;;0.10;;
13552;SDS011;6847;48.830;9.116;2023-07-13T03:13:53;0.10;;;0.10;;
13552;SDS011;6847;48.830;9.116;2023-07-13T03:16:21;0.10;;;0.10;;
13552;SDS011;6847;48.830;9.116;2023-07-13T03:18:52;0.10;;;0.10;;
13552;SDS011;6847;48.830;9.116;2023-07-13T03:21:19;0.10;;;0.10;;
13552;SDS011;6847;48.830;9.116;2023-07-13T03:23:45;0.15;;;0.15;;
13552;SDS011;6847;48.830;9.116;2023-07-13T03:26:14;0.10;;;0.10;;
13552;SDS011;6847;48.830;9.116;2023-07-13T03:28:43;0.10;;;0.10;;
13552;SDS011;6847;48.830;9.116;2023-07-13T03:31:10;0.10;;;0.10;;
13552;SDS011;6847;48.830;9.116;2023-07-13T03:33:40;0.10;;;0.10;;
13552;SDS011;6847;48.830;9.116;2023-07-13T03:36:11;0.10;;;0.10;;
13552;SDS011;6847;48.830;9.116;2023-07-13T03:38:43;0.10;;;0.10;;
13552;SDS011;6847;48.830;9.116;2023-07-13T03:41:11;0.10;;;0.10;;
13552;SDS011;6847;48.830;9.116;2023-07-13T03:43:38;0.10;;;0.10;;
13552;SDS011;6847;48.830;9.116;2023-07-13T03:46:05;0.10;;;0.10;;
13552;SDS011;6847;48.830;9.116;2023-07-13T03:48:33;0.10;;;0.10;;
13552;SDS011;6847;48.830;9.116;2023-07-13T03:50:59;0.10;;;0.10;;
13552;SDS011;6847;48.830;9.116;2023-07-13T03:53:30;0.10;;;0.10;;
13552;SDS011;6847;48.830;9.116;2023-07-13T03:56:00;0.10;;;0.10;;
13552;SDS011;6847;48.830;9.116;2023-07-13T03:58:32;0.10;;;0.10;;
13552;SDS011;6847;48.830;9.116;2023-07-13T04:00:59;0.10;;;0.10;;
13552;SDS011;6847;48.830;9.116;2023-07-13T04:03:33;0.10;;;0.10;;
13552;SDS011;6847;48.830;9.116;2023-07-13T04:06:02;0.10;;;0.10;;
13552;SDS011;6847;48.830;9.116;2023-07-13T04:08:43;0.10;;;0.10;;
13552;SDS011;6847;48.830;9.116;2023-07-13T04:11:09;0.10;;;0.10;;
13552;SDS011;6847;48.830;9.116;2023-07-13T04:13:36;0.10;;;0.10;;
13552;SDS011;6847;48.830;9.116;2023-07-13T04:16:03;0.10;;;0.10;;
13552;SDS011;6847;48.830;9.116;2023-07-13T04:18:30;0.10;;;0.10;;
13552;SDS011;6847;48.830;9.116;2023-07-13T04:20:56;0.10;;;0.10;;
13552;SDS011;6847;48.830;9.116;2023-07-13T04:23:23;0.10;;;0.10;;
13552;SDS011;6847;48.830;9.116;2023-07-13T04:25:51;0.10;;;0.10;;
13552;SDS011;6847;48.830;9.116;2023-07-13T04:28:19;0.10;;;0.10;;
13552;SDS011;6847;48.830;9.116;2023-07-13T04:30:49;0.10;;;0.10;;
13552;SDS011;6847;48.830;9.116;2023-07-13T04:33:19;0.10;;;0.10;;
13552;SDS011;6847;48.830;9.116;2023-07-13T04:35:47;0.10;;;0.10;;
13552;SDS011;6847;48.830;9.116;2023-07-13T04:38:21;0.10;;;0.10;;
13552;SDS011;6847;48.830;9.116;2023-07-13T04:40:54;0.10;;;0.10;;
13552;SDS011;6847;48.830;9.116;2023-07-13T04:43:22;0.10;;;0.10;;
13552;SDS011;6847;48.830;9.116;2023-07-13T04:45:53;0.10;;;0.10;;
13552;SDS011;6847;48.830;9.116;2023-07-13T04:48:22;0.10;;;0.10;;
13552;SDS011;6847;48.830;9.116;2023-07-13T04:50:54;0.10;;;0.10;;
13552;SDS011;6847;48.830;9.116;2023-07-13T04:53:23;0.10;;;0.10;;
13552;SDS011;6847;48.830;9.116;2023-07-13T04:55:52;0.10;;;0.10;;
13552;SDS011;6847;48.830;9.116;2023-07-13T04:58:20;0.10;;;0.10;;
13552;SDS011;6847;48.830;9.116;2023-07-13T05:00:49;0.10;;;0.10;;
13552;SDS011;6847;48.830;9.116;2023-07-13T05:06:14;0.10;;;0.10;;
13552;SDS011;6847;48.830;9.116;2023-07-13T05:08:41;0.10;;;0.10;;
13552;SDS011;6847;48.830;9.116;2023-07-13T05:11:09;0.15;;;0.15;;
13552;SDS011;6847;48.830;9.116;2023-07-13T05:13:36;0.10;;;0.10;;
13552;SDS011;6847;48.830;9.116;2023-07-13T05:16:03;0.10;;;0.10;;
13552;SDS011;6847;48.830;9.116;2023-07-13T05:18:33;0.10;;;0.10;;
13552;SDS011;6847;48.830;9.116;2023-07-13T05:21:01;0.10;;;0.10;;
13552;SDS011;6847;48.830;9.116;2023-07-13T05:23:29;0.10;;;0.10;;
13552;SDS011;6847;48.830;9.116;2023-07-13T05:25:56;0.10;;;0.10;;
13552;SDS011;6847;48.830;9.116;2023-07-13T05:28:24;0.10;;;0.10;;
13552;SDS011;6847;48.830;9.116;2023-07-13T05:30:51;0.10;;;0.10;;
13552;SDS011;6847;48.830;9.116;2023-07-13T05:33:19;0.10;;;0.10;;
13552;SDS011;6847;48.830;9.116;2023-07-13T05:35:47;0.10;;;0.10;;
13552;SDS011;6847;48.830;9.116;2023-07-13T05:38:16;0.10;;;0.10;;
13552;SDS011;6847;48.830;9.116;2023-07-13T05:40:43;0.10;;;0.10;;
13552;SDS011;6847;48.830;9.116;2023-07-13T05:43:10;0.10;;;0.10;;
13552;SDS011;6847;48.830;9.116;2023-07-13T05:45:39;0.10;;;0.10;;
13552;SDS011;6847;48.830;9.116;2023-07-13T05:48:08;0.10;;;0.10;;
13552;SDS011;6847;48.830;9.116;2023-07-13T05:50:34;0.10;;;0.10;;
13552;SDS011;6847;48.830;9.116;2023-07-13T05:53:01;0.10;;;0.10;;
13552;SDS011;6847;48.830;9.116;2023-07-13T05:55:27;0.10;;;0.10;;
13552;SDS011;6847;48.830;9.116;2023-07-13T05:57:55;0.10;;;0.10;;
13552;SDS011;6847;48.830;9.116;2023-07-13T06:00:23;0.00;;;0.00;;
13552;SDS011;6847;48.830;9.116;2023-07-13T06:02:51;0.15;;;0.15;;
13552;SDS011;6847;48.830;9.116;2023-07-13T06:05:20;0.10;;;0.10;;
13552;SDS011;6847;48.830;9.116;2023-07-13T06:07:49;0.10;;;0.10;;
13552;SDS011;6847;48.830;9.116;2023-07-13T06:10:16;0.10;;;0.10;;
13552;SDS011;6847;48.830;9.116;2023-07-13T06:12:44;0.10;;;0.10;;
13552;SDS011;6847;48.830;9.116;2023-07-13T06:15:21;0.10;;;0.10;;
13552;SDS011;6847;48.830;9.116;2023-07-13T06:17:50;0.10;;;0.10;;
13552;SDS011;6847;48.830;9.116;2023-07-13T06:20:17;0.10;;;0.10;;
13552;SDS011;6847;48.830;9.116;2023-07-13T06:22:44;0.13;;;0.13;;
13552;SDS011;6847;48.830;9.116;2023-07-13T06:25:14;0.20;;;0.20;;
13552;SDS011;6847;48.830;9.116;2023-07-13T06:27:44;0.10;;;0.10;;
13552;SDS011;6847;48.830;9.116;2023-07-13T06:30:13;0.10;;;0.10;;
13552;SDS011;6847;48.830;9.116;2023-07-13T06:32:41;0.15;;;0.15;;
13552;SDS011;6847;48.830;9.116;2023-07-13T06:35:13;0.10;;;0.10;;
13552;SDS011;6847;48.830;9.116;2023-07-13T06:37:40;0.10;;;0.10;;
13552;SDS011;6847;48.830;9.116;2023-07-13T06:40:16;0.10;;;0.10;;
13552;SDS011;6847;48.830;9.116;2023-07-13T06:42:42;0.10;;;0.10;;
13552;SDS011;6847;48.830;9.116;2023-07-13T06:45:10;0.10;;;0.10;;
13552;SDS011;6847;48.830;9.116;2023-07-13T06:47:38;0.10;;;0.10;;
13552;SDS011;6847;48.830;9.116;2023-07-13T06:50:05;0.10;;;0.10;;
13552;SDS011;6847;48.830;9.116;2023-07-13T06:52:35;0.10;;;0.10;;
13552;SDS011;6847;48.830;9.116;2023-07-13T06:55:44;0.10;;;0.10;;
13552;SDS011;6847;48.830;9.116;2023-07-13T06:58:13;0.10;;;0.10;;
13552;SDS011;6847;48.830;9.116;2023-07-13T07:00:44;0.10;;;0.10;;
13552;SDS011;6847;48.830;9.116;2023-07-13T07:03:16;0.10;;;0.10;;
13552;SDS011;6847;48.830;9.116;2023-07-13T07:05:42;0.10;;;0.10;;
13552;SDS011;6847;48.830;9.116;2023-07-13T07:08:11;0.10;;;0.10;;
13552;SDS011;6847;48.830;9.116;2023-07-13T07:10:44;0.10;;;0.10;;
13552;SDS011;6847;48.830;9.116;2023-07-13T07:13:14;0.10;;;0.10;;
13552;SDS011;6847;48.830;9.116;2023-07-13T07:15:44;0.10;;;0.10;;
13552;SDS011;6847;48.830;9.116;2023-07-13T07:18:10;0.10;;;0.10;;
13552;SDS011;6847;48.830;9.116;2023-07-13T07:20:39;0.10;;;0.10;;
13552;SDS011;6847;48.830;9.116;2023-07-13T07:23:07;0.20;;;0.20;;
13552;SDS011;6847;48.830;9.116;2023-07-13T07:25:34;0.10;;;0.10;;
13552;SDS011;6847;48.830;9.116;2023-07-13T07:28:08;0.10;;;0.10;;
13552;SDS011;6847;48.830;9.116;2023-07-13T07:30:34;0.10;;;0.10;;
13552;SDS011;6847;48.830;9.116;2023-07-13T07:33:01;0.10;;;0.10;;
13552;SDS011;6847;48.830;9.116;2023-07-13T07:35:28;0.10;;;0.10;;
13552;SDS011;6847;48.830;9.116;2023-07-13T07:37:55;0.20;;;0.20;;
13552;SDS011;6847;48.830;9.116;2023-07-13T07:40:21;0.10;;;0.10;;
13552;SDS011;6847;48.830;9.116;2023-07-13T07:42:48;0.20;;;0.20;;
13552;SDS011;6847;48.830;9.116;2023-07-13T07:45:18;0.10;;;0.10;;
13552;SDS011;6847;48.830;9.116;2023-07-13T07:47:44;0.10;;;0.10;;
13552;SDS011;6847;48.830;9.116;2023-07-13T07:50:11;0.10;;;0.10;;
13552;SDS011;6847;48.830;9.116;2023-07-13T07:52:38;0.10;;;0.10;;
13552;SDS011;6847;48.830;9.116;2023-07-13T07:55:11;0.10;;;0.10;;
13552;SDS011;6847;48.830;9.116;2023-07-13T07:57:39;0.10;;;0.10;;
13552;SDS011;6847;48.830;9.116;2023-07-13T08:00:06;0.10;;;0.10;;
13552;SDS011;6847;48.830;9.116;2023-07-13T08:02:41;0.10;;;0.10;;
13552;SDS011;6847;48.830;9.116;2023-07-13T08:05:08;0.20;;;0.20;;
13552;SDS011;6847;48.830;9.116;2023-07-13T08:07:39;0.13;;;0.13;;
13552;SDS011;6847;48.830;9.116;2023-07-13T08:10:07;0.13;;;0.13;;
13552;SDS011;6847;48.830;9.116;2023-07-13T08:12:34;0.10;;;0.10;;
13552;SDS011;6847;48.830;9.116;2023-07-13T08:15:11;0.10;;;0.10;;
13552;SDS011;6847;48.830;9.116;2023-07-13T08:20:44;0.10;;;0.10;;
13552;SDS011;6847;48.830;9.116;2023-07-13T08:23:12;0.10;;;0.10;;
13552;SDS011;6847;48.830;9.116;2023-07-13T08:25:41;0.10;;;0.10;;
13552;SDS011;6847;48.830;9.116;2023-07-13T08:28:09;0.13;;;0.13;;
13552;SDS011;6847;48.830;9.116;2023-07-13T08:30:36;0.10;;;0.10;;
13552;SDS011;6847;48.830;9.116;2023-07-13T08:33:21;0.20;;;0.20;;
13552;SDS011;6847;48.830;9.116;2023-07-13T08:35:50;0.10;;;0.10;;
13552;SDS011;6847;48.830;9.116;2023-07-13T08:38:17;0.20;;;0.20;;
13552;SDS011;6847;48.830;9.116;2023-07-13T08:40:45;0.20;;;0.20;;
13552;SDS011;6847;48.830;9.116;2023-07-13T08:43:19;0.10;;;0.10;;
13552;SDS011;6847;48.830;9.116;2023-07-13T08:48:23;0.20;;;0.20;;
13552;SDS011;6847;48.830;9.116;2023-07-13T08:50:55;0.20;;;0.20;;
13552;SDS011;6847;48.830;9.116;2023-07-13T08:53:26;0.20;;;0.20;;
13552;SDS011;6847;48.830;9.116;2023-07-13T08:56:01;0.20;;;0.20;;
13552;SDS011;6847;48.830;9.116;2023-07-13T08:58:29;0.20;;;0.20;;
13552;SDS011;6847;48.830;9.116;2023-07-13T09:00:59;0.10;;;0.10;;
13552;SDS011;6847;48.830;9.116;2023-07-13T09:06:03;0.20;;;0.20;;
13552;SDS011;6847;48.830;9.116;2023-07-13T09:08:40;0.20;;;0.20;;
13552;SDS011;6847;48.830;9.116;2023-07-13T09:11:19;0.20;;;0.20;;
13552;SDS011;6847;48.830;9.116;2023-07-13T09:14:05;0.17;;;0.17;;
13552;SDS011;6847;48.830;9.116;2023-07-13T09:16:49;0.20;;;0.20;;
13552;SDS011;6847;48.830;9.116;2023-07-13T09:19:19;0.10;;;0.10;;
13552;SDS011;6847;48.830;9.116;2023-07-13T09:21:50;0.10;;;0.10;;
13552;SDS011;6847;48.830;9.116;2023-07-13T09:24:34;0.20;;;0.20;;
13552;SDS011;6847;48.830;9.116;2023-07-13T09:30:11;0.20;;;0.20;;
13552;SDS011;6847;48.830;9.116;2023-07-13T09:32:50;0.20;;;0.20;;
13552;SDS011;6847;48.830;9.116;2023-07-13T09:35:29;0.17;;;0.17;;
13552;SDS011;6847;48.830;9.116;2023-07-13T09:38:04;0.32;;;0.32;;
13552;SDS011;6847;48.830;9.116;2023-07-13T09:40:44;0.20;;;0.20;;
13552;SDS011;6847;48.830;9.116;2023-07-13T09:43:19;0.20;;;0.20;;
13552;SDS011;6847;48.830;9.116;2023-07-13T09:45:47;0.20;;;0.20;;
13552;SDS011;6847;48.830;9.116;2023-07-13T09:48:14;0.20;;;0.20;;
13552;SDS011;6847;48.830;9.116;2023-07-13T09:50:47;0.20;;;0.20;;
13552;SDS011;6847;48.830;9.116;2023-07-13T09:53:28;0.20;;;0.20;;
13552;SDS011;6847;48.830;9.116;2023-07-13T09:55:57;0.25;;;0.25;;
13552;SDS011;6847;48.830;9.116;2023-07-13T09:58:26;0.20;;;0.20;;
13552;SDS011;6847;48.830;9.116;2023-07-13T10:00:58;0.20;;;0.20;;
13552;SDS011;6847;48.830;9.116;2023-07-13T10:06:14;0.20;;;0.20;;
13552;SDS011;6847;48.830;9.116;2023-07-13T10:08:43;0.22;;;0.22;;
13552;SDS011;6847;48.830;9.116;2023-07-13T10:11:18;0.20;;;0.20;;
13552;SDS011;6847;48.830;9.116;2023-07-13T10:13:50;0.20;;;0.20;;
13552;SDS011;6847;48.830;9.116;2023-07-13T10:16:19;0.20;;;0.20;;
13552;SDS011;6847;48.830;9.116;2023-07-13T10:18:47;0.20;;;0.20;;
13552;SDS011;6847;48.830;9.116;2023-07-13T10:24:19;0.20;;;0.20;;
13552;SDS011;6847;48.830;9.116;2023-07-13T10:26:56;0.20;;;0.20;;
13552;SDS011;6847;48.830;9.116;2023-07-13T10:32:29;0.20;;;0.20;;
13552;SDS011;6847;48.830;9.116;2023-07-13T10:35:10;0.20;;;0.20;;
13552;SDS011;6847;48.830;9.116;2023-07-13T10:37:43;0.30;;;0.30;;
13552;SDS011;6847;48.830;9.116;2023-07-13T10:40:16;0.20;;;0.20;;
13552;SDS011;6847;48.830;9.116;2023-07-13T10:42:48;0.25;;;0.25;;
13552;SDS011;6847;48.830;9.116;2023-07-13T10:45:21;0.30;;;0.30;;
13552;SDS011;6847;48.830;9.116;2023-07-13T10:47:50;0.30;;;0.30;;
13552;SDS011;6847;48.830;9.116;2023-07-13T10:50:21;0.20;;;0.20;;
13552;SDS011;6847;48.830;9.116;2023-07-13T10:52:53;0.20;;;0.20;;
13552;SDS011;6847;48.830;9.116;2023-07-13T10:55:34;0.20;;;0.20;;
13552;SDS011;6847;48.830;9.116;2023-07-13T10:58:11;0.20;;;0.20;;
13552;SDS011;6847;48.830;9.116;2023-07-13T11:00:45;0.20;;;0.20;;
13552;SDS011;6847;48.830;9.116;2023-07-13T11:03:16;0.15;;;0.15;;
13552;SDS011;6847;48.830;9.116;2023-07-13T11:05:48;0.10;;;0.10;;
13552;SDS011;6847;48.830;9.116;2023-07-13T11:08:21;0.20;;;0.20;;
13552;SDS011;6847;48.830;9.116;2023-07-13T11:11:31;0.20;;;0.20;;
13552;SDS011;6847;48.830;9.116;2023-07-13T11:14:05;0.20;;;0.20;;
13552;SDS011;6847;48.830;9.116;2023-07-13T11:16:53;0.25;;;0.25;;
13552;SDS011;6847;48.830;9.116;2023-07-13T11:22:12;0.20;;;0.20;;
13552;SDS011;6847;48.830;9.116;2023-07-13T11:24:58;0.30;;;0.30;;
13552;SDS011;6847;48.830;9.116;2023-07-13T11:27:32;0.20;;;0.20;;
13552;SDS011;6847;48.830;9.116;2023-07-13T11:30:18;0.40;;;0.40;;
13552;SDS011;6847;48.830;9.116;2023-07-13T11:32:50;0.30;;;0.30;;
13552;SDS011;6847;48.830;9.116;2023-07-13T11:35:21;0.20;;;0.20;;
13552;SDS011;6847;48.830;9.116;2023-07-13T11:37:52;0.20;;;0.20;;
13552;SDS011;6847;48.830;9.116;2023-07-13T11:40:21;0.20;;;0.20;;
13552;SDS011;6847;48.830;9.116;2023-07-13T11:42:57;0.13;;;0.13;;
13552;SDS011;6847;48.830;9.116;2023-07-13T11:45:28;0.25;;;0.25;;
13552;SDS011;6847;48.830;9.116;2023-07-13T11:47:55;0.30;;;0.30;;
13552;SDS011;6847;48.830;9.116;2023-07-13T11:50:28;0.20;;;0.20;;
13552;SDS011;6847;48.830;9.116;2023-07-13T11:52:54;0.20;;;0.20;;
13552;SDS011;6847;48.830;9.116;2023-07-13T11:55:28;0.30;;;0.30;;
13552;SDS011;6847;48.830;9.116;2023-07-13T11:58:00;0.20;;;0.20;;
13552;SDS011;6847;48.830;9.116;2023-07-13T12:00:34;0.20;;;0.20;;
13552;SDS011;6847;48.830;9.116;2023-07-13T12:03:03;0.20;;;0.20;;
13552;SDS011;6847;48.830;9.116;2023-07-13T12:05:54;0.35;;;0.35;;
13552;SDS011;6847;48.830;9.116;2023-07-13T12:08:25;0.20;;;0.20;;
13552;SDS011;6847;48.830;9.116;2023-07-13T12:11:05;0.20;;;0.20;;
13552;SDS011;6847;48.830;9.116;2023-07-13T12:13:43;0.20;;;0.20;;
13552;SDS011;6847;48.830;9.116;2023-07-13T12:16:11;0.20;;;0.20;;
13552;SDS011;6847;48.830;9.116;2023-07-13T12:21:31;0.20;;;0.20;;
13552;SDS011;6847;48.830;9.116;2023-07-13T12:24:15;0.20;;;0.20;;
13552;SDS011;6847;48.830;9.116;2023-07-13T12:29:31;0.20;;;0.20;;
13552;SDS011;6847;48.830;9.116;2023-07-13T12:31:59;0.20;;;0.20;;
13552;SDS011;6847;48.830;9.116;2023-07-13T12:34:28;0.20;;;0.20;;
13552;SDS011;6847;48.830;9.116;2023-07-13T12:36:58;0.20;;;0.20;;
13552;SDS011;6847;48.830;9.116;2023-07-13T12:39:28;0.30;;;0.30;;
13552;SDS011;6847;48.830;9.116;2023-07-13T12:42:21;0.20;;;0.20;;
13552;SDS011;6847;48.830;9.116;2023-07-13T12:45:01;0.30;;;0.30;;
13552;SDS011;6847;48.830;9.116;2023-07-13T12:48:13;0.25;;;0.25;;
13552;SDS011;6847;48.830;9.116;2023-07-13T12:50:42;0.20;;;0.20;;
13552;SDS011;6847;48.830;9.116;2023-07-13T12:53:15;0.20;;;0.20;;
13552;SDS011;6847;48.830;9.116;2023-07-13T12:55:46;0.30;;;0.30;;
13552;SDS011;6847;48.830;9.116;2023-07-13T12:58:20;0.20;;;0.20;;
13552;SDS011;6847;48.830;9.116;2023-07-13T13:00:57;0.22;;;0.22;;
13552;SDS011;6847;48.830;9.116;2023-07-13T13:03:29;0.17;;;0.17;;
13552;SDS011;6847;48.830;9.116;2023-07-13T13:06:02;0.30;;;0.30;;
13552;SDS011;6847;48.830;9.116;2023-07-13T13:08:32;0.20;;;0.20;;
13552;SDS011;6847;48.830;9.116;2023-07-13T13:11:01;0.20;;;0.20;;
13552;SDS011;6847;48.830;9.116;2023-07-13T13:13:29;0.20;;;0.20;;
13552;SDS011;6847;48.830;9.116;2023-07-13T13:16:10;0.20;;;0.20;;
13552;SDS011;6847;48.830;9.116;2023-07-13T13:18:45;0.30;;;0.30;;
13552;SDS011;6847;48.830;9.116;2023-07-13T13:21:12;0.20;;;0.20;;
13552;SDS011;6847;48.830;9.116;2023-07-13T13:23:44;0.20;;;0.20;;
13552;SDS011;6847;48.830;9.116;2023-07-13T13:26:12;0.20;;;0.20;;
13552;SDS011;6847;48.830;9.116;2023-07-13T13:28:44;0.20;;;0.20;;
13552;SDS011;6847;48.830;9.116;2023-07-13T13:31:13;0.20;;;0.20;;
13552;SDS011;6847;48.830;9.116;2023-07-13T13:33:42;0.20;;;0.20;;
13552;SDS011;6847;48.830;9.116;2023-07-13T13:36:15;0.20;;;0.20;;
13552;SDS011;6847;48.830;9.116;2023-07-13T13:38:56;0.20;;;0.20;;
13552;SDS011;6847;48.830;9.116;2023-07-13T13:41:26;0.20;;;0.20;;
13552;SDS011;6847;48.830;9.116;2023-07-13T13:43:58;0.20;;;0.20;;
13552;SDS011;6847;48.830;9.116;2023-07-13T13:46:24;0.20;;;0.20;;
13552;SDS011;6847;48.830;9.116;2023-07-13T13:48:54;0.20;;;0.20;;
13552;SDS011;6847;48.830;9.116;2023-07-13T13:51:22;0.22;;;0.22;;
13552;SDS011;6847;48.830;9.116;2023-07-13T13:54:00;0.28;;;0.28;;
13552;SDS011;6847;48.830;9.116;2023-07-13T13:56:27;0.20;;;0.20;;
13552;SDS011;6847;48.830;9.116;2023-07-13T13:58:54;0.22;;;0.22;;
13552;SDS011;6847;48.830;9.116;2023-07-13T14:01:30;0.30;;;0.30;;
13552;SDS011;6847;48.830;9.116;2023-07-13T14:04:03;0.35;;;0.35;;
13552;SDS011;6847;48.830;9.116;2023-07-13T14:06:31;0.20;;;0.20;;
13552;SDS011;6847;48.830;9.116;2023-07-13T14:09:00;0.30;;;0.30;;
13552;SDS011;6847;48.830;9.116;2023-07-13T14:11:40;0.38;;;0.38;;
13552;SDS011;6847;48.830;9.116;2023-07-13T14:14:33;0.30;;;0.30;;
13552;SDS011;6847;48.830;9.116;2023-07-13T14:17:20;0.30;;;0.30;;
13552;SDS011;6847;48.830;9.116;2023-07-13T14:19:52;0.30;;;0.30;;
13552;SDS011;6847;48.830;9.116;2023-07-13T14:22:29;0.40;;;0.40;;
13552;SDS011;6847;48.830;9.116;2023-07-13T14:25:00;0.30;;;0.30;;
13552;SDS011;6847;48.830;9.116;2023-07-13T14:27:26;0.30;;;0.30;;
13552;SDS011;6847;48.830;9.116;2023-07-13T14:30:12;0.30;;;0.30;;
13552;SDS011;6847;48.830;9.116;2023-07-13T14:32:56;0.25;;;0.25;;
13552;SDS011;6847;48.830;9.116;2023-07-13T14:35:39;0.30;;;0.30;;
13552;SDS011;6847;48.830;9.116;2023-07-13T14:38:09;0.28;;;0.28;;
13552;SDS011;6847;48.830;9.116;2023-07-13T14:41:00;0.30;;;0.30;;
13552;SDS011;6847;48.830;9.116;2023-07-13T14:43:46;0.30;;;0.30;;
13552;SDS011;6847;48.830;9.116;2023-07-13T14:47:05;0.25;;;0.25;;
13552;SDS011;6847;48.830;9.116;2023-07-13T14:49:42;0.30;;;0.30;;
13552;SDS011;6847;48.830;9.116;2023-07-13T14:52:14;0.30;;;0.30;;
13552;SDS011;6847;48.830;9.116;2023-07-13T14:54:58;0.63;;;0.63;;
13552;SDS011;6847;48.830;9.116;2023-07-13T14:57:32;0.40;;;0.40;;
13552;SDS011;6847;48.830;9.116;2023-07-13T15:00:12;0.20;;;0.20;;
13552;SDS011;6847;48.830;9.116;2023-07-13T15:02:54;0.25;;;0.25;;
13552;SDS011;6847;48.830;9.116;2023-07-13T15:05:26;0.30;;;0.30;;
13552;SDS011;6847;48.830;9.116;2023-07-13T15:07:56;0.32;;;0.32;;
13552;SDS011;6847;48.830;9.116;2023-07-13T15:10:25;0.30;;;0.30;;
13552;SDS011;6847;48.830;9.116;2023-07-13T15:12:57;0.20;;;0.20;;
13552;SDS011;6847;48.830;9.116;2023-07-13T15:15:26;0.30;;;0.30;;
13552;SDS011;6847;48.830;9.116;2023-07-13T15:17:54;0.30;;;0.30;;
13552;SDS011;6847;48.830;9.116;2023-07-13T15:20:26;0.55;;;0.55;;
13552;SDS011;6847;48.830;9.116;2023-07-13T15:23:02;0.28;;;0.28;;
13552;SDS011;6847;48.830;9.116;2023-07-13T15:25:32;0.30;;;0.30;;
13552;SDS011;6847;48.830;9.116;2023-07-13T15:27:59;0.30;;;0.30;;
13552;SDS011;6847;48.830;9.116;2023-07-13T15:30:28;0.30;;;0.30;;
13552;SDS011;6847;48.830;9.116;2023-07-13T15:33:09;0.20;;;0.20;;
13552;SDS011;6847;48.830;9.116;2023-07-13T15:36:06;0.30;;;0.30;;
13552;SDS011;6847;48.830;9.116;2023-07-13T15:38:34;0.30;;;0.30;;
13552;SDS011;6847;48.830;9.116;2023-07-13T15:41:04;0.30;;;0.30;;
13552;SDS011;6847;48.830;9.116;2023-07-13T15:43:57;0.20;;;0.20;;
13552;SDS011;6847;48.830;9.116;2023-07-13T15:46:26;0.20;;;0.20;;
13552;SDS011;6847;48.830;9.116;2023-07-13T15:48:57;0.30;;;0.30;;
13552;SDS011;6847;48.830;9.116;2023-07-13T15:51:26;0.20;;;0.20;;
13552;SDS011;6847;48.830;9.116;2023-07-13T15:53:55;0.28;;;0.28;;
13552;SDS011;6847;48.830;9.116;2023-07-13T15:56:29;0.30;;;0.30;;
13552;SDS011;6847;48.830;9.116;2023-07-13T15:59:05;0.30;;;0.30;;
13552;SDS011;6847;48.830;9.116;2023-07-13T16:01:37;0.30;;;0.30;;